createdAt,value
2022-11-01T00:02:09.899Z,93943.22
2022-11-01T00:04:36.329Z,93930.66
2022-11-01T00:07:02.825Z,93909.28
2022-11-01T00:09:29.257Z,93916.81
2022-11-01T00:11:55.675Z,93915.72
2022-11-01T00:14:22.216Z,93920.00
2022-11-01T00:16:49.062Z,93920.41
2022-11-01T00:19:15.492Z,93905.88
2022-11-01T00:21:41.894Z,93912.66
2022-11-01T00:24:08.629Z,93901.56
2022-11-01T00:26:35.699Z,93892.97
2022-11-01T00:29:02.194Z,93906.28
2022-11-01T00:31:29.566Z,93913.59
2022-11-01T00:33:56.015Z,93916.84
2022-11-01T00:36:22.401Z,93926.50
2022-11-01T00:38:52.397Z,93950.03
2022-11-01T00:41:20.763Z,93915.91
2022-11-01T00:43:47.506Z,93921.75
2022-11-01T00:46:14.093Z,93924.53
2022-11-01T00:48:40.804Z,93925.59
2022-11-01T00:51:07.221Z,93946.94
2022-11-01T00:53:33.858Z,93976.13
2022-11-01T00:56:05.193Z,93972.69
2022-11-01T00:58:31.768Z,93980.19
2022-11-01T01:00:58.383Z,93968.53
2022-11-01T01:03:24.982Z,93945.38
2022-11-01T01:05:52.980Z,93977.69
2022-11-01T01:08:20.133Z,93965.28
2022-11-01T01:10:46.818Z,93956.47
2022-11-01T01:13:13.475Z,93982.34
2022-11-01T01:15:41.291Z,93970.47
2022-11-01T01:18:08.247Z,93971.28
2022-11-01T01:20:35.298Z,93971.59
2022-11-01T01:23:01.723Z,93925.31
2022-11-01T01:25:28.126Z,93937.34
2022-11-01T01:27:55.593Z,93929.16
2022-11-01T01:30:21.994Z,93950.47
2022-11-01T01:32:48.402Z,93970.94
2022-11-01T01:35:14.833Z,93967.94
2022-11-01T01:37:41.240Z,93953.50
2022-11-01T01:40:08.769Z,93941.63
2022-11-01T01:42:40.750Z,93960.78
2022-11-01T01:45:29.267Z,93964.84
2022-11-01T01:48:03.289Z,93969.09
2022-11-01T01:50:46.042Z,93968.78
2022-11-01T01:53:12.371Z,93973.72
2022-11-01T01:55:53.376Z,93964.38
2022-11-01T01:58:22.692Z,93968.19
2022-11-01T02:00:50.117Z,93973.66
2022-11-01T02:03:16.761Z,93977.19
2022-11-01T02:05:54.797Z,93981.69
2022-11-01T02:08:27.600Z,93974.28
2022-11-01T02:10:56.289Z,93969.56
2022-11-01T02:13:22.758Z,93988.84
2022-11-01T02:16:21.494Z,93988.84
2022-11-01T02:18:57.514Z,93989.38
2022-11-01T02:21:42.299Z,93992.06
2022-11-01T02:24:36.607Z,93992.38
2022-11-01T02:27:14.144Z,93967.38
2022-11-01T02:30:01.556Z,93973.00
2022-11-01T02:32:35.610Z,93979.69
2022-11-01T02:35:13.147Z,93980.72
2022-11-01T02:37:49.773Z,93957.19
2022-11-01T02:40:26.247Z,93980.72
2022-11-01T02:42:55.114Z,94001.25
2022-11-01T02:45:30.514Z,94003.41
2022-11-01T02:47:58.797Z,94005.13
2022-11-01T02:50:36.154Z,93994.53
2022-11-01T02:53:03.129Z,93958.13
2022-11-01T02:55:30.365Z,93971.28
2022-11-01T02:58:22.470Z,93974.63
2022-11-01T03:00:49.130Z,93970.91
2022-11-01T03:03:21.358Z,93977.44
2022-11-01T03:06:00.049Z,93989.28
2022-11-01T03:08:45.721Z,93974.47
2022-11-01T03:11:20.397Z,93984.13
2022-11-01T03:13:53.446Z,93993.03
2022-11-01T03:16:36.045Z,93999.44
2022-11-01T03:19:06.524Z,93993.22
2022-11-01T03:21:41.341Z,93966.75
2022-11-01T03:24:20.223Z,93955.44
2022-11-01T03:26:54.821Z,93952.38
2022-11-01T03:29:23.544Z,93953.56
2022-11-01T03:31:52.481Z,93992.34
2022-11-01T03:34:19.941Z,93963.59
2022-11-01T03:36:53.057Z,93989.84
2022-11-01T03:39:26.965Z,93987.91
2022-11-01T03:41:58.510Z,94007.88
2022-11-01T03:44:26.810Z,94005.91
2022-11-01T03:46:53.352Z,93992.84
2022-11-01T03:49:20.299Z,94005.69
2022-11-01T03:51:46.726Z,93975.16
2022-11-01T03:54:13.132Z,93980.09
2022-11-01T03:56:40.664Z,93990.38
2022-11-01T03:59:08.535Z,94020.63
2022-11-01T04:01:35.276Z,93978.53
2022-11-01T04:04:01.985Z,94008.00
2022-11-01T04:06:28.770Z,94037.19
2022-11-01T04:08:55.582Z,94013.53
2022-11-01T04:11:22.014Z,94032.97
2022-11-01T04:13:48.437Z,94035.22
2022-11-01T04:16:33.520Z,94030.66
2022-11-01T04:19:18.348Z,94042.97
2022-11-01T04:21:44.905Z,94038.81
2022-11-01T04:24:11.387Z,94045.22
2022-11-01T04:26:38.069Z,94049.81
2022-11-01T04:29:04.525Z,94031.19
2022-11-01T04:31:34.249Z,94062.00
2022-11-01T04:34:02.125Z,94068.75
2022-11-01T04:36:28.573Z,94036.19
2022-11-01T04:38:56.780Z,94072.72
2022-11-01T04:41:25.116Z,94049.75
2022-11-01T04:43:57.160Z,94063.88
2022-11-01T04:46:23.766Z,94053.44
2022-11-01T04:48:50.210Z,94054.91
2022-11-01T04:51:16.883Z,94086.69
2022-11-01T04:53:43.288Z,94047.50
2022-11-01T04:56:13.665Z,94094.28
2022-11-01T04:58:44.824Z,94075.81
2022-11-01T05:01:13.277Z,94061.06
2022-11-01T05:03:39.783Z,94070.03
2022-11-01T05:06:06.546Z,94056.53
2022-11-01T05:08:33.113Z,94074.88
2022-11-01T05:10:59.656Z,94102.81
2022-11-01T05:13:26.058Z,94073.28
2022-11-01T05:16:06.428Z,94111.66
2022-11-01T05:18:42.448Z,94099.50
2022-11-01T05:21:08.843Z,94075.56
2022-11-01T05:23:35.244Z,94072.28
2022-11-01T05:26:01.637Z,94106.50
2022-11-01T05:28:28.070Z,94095.16
2022-11-01T05:30:54.470Z,94100.66
2022-11-01T05:33:20.862Z,94129.91
2022-11-01T05:35:47.302Z,94119.75
2022-11-01T05:38:13.689Z,94118.28
2022-11-01T05:40:40.078Z,94098.13
2022-11-01T05:43:06.524Z,94128.03
2022-11-01T05:45:32.950Z,94120.13
2022-11-01T05:48:04.150Z,94147.25
2022-11-01T05:50:31.115Z,94165.84
2022-11-01T05:53:05.182Z,94174.19
2022-11-01T05:55:31.625Z,94143.41
2022-11-01T05:57:58.872Z,94142.97
2022-11-01T06:00:25.250Z,94142.06
2022-11-01T06:02:51.725Z,94100.22
2022-11-01T06:05:18.152Z,94181.53
2022-11-01T06:07:44.538Z,94143.84
2022-11-01T06:10:10.938Z,94170.00
2022-11-01T06:12:37.346Z,94188.94
2022-11-01T06:15:04.037Z,94150.81
2022-11-01T06:17:30.420Z,94195.53
2022-11-01T06:19:57.131Z,94194.31
2022-11-01T06:22:23.546Z,94199.34
2022-11-01T06:24:49.989Z,94197.50
2022-11-01T06:27:16.732Z,94201.38
2022-11-01T06:29:43.140Z,94201.00
2022-11-01T06:32:09.690Z,94217.44
2022-11-01T06:34:37.700Z,94220.91
2022-11-01T06:37:06.010Z,94177.31
2022-11-01T06:39:32.457Z,94234.88
2022-11-01T06:41:58.896Z,94234.44
2022-11-01T06:44:25.297Z,94230.63
2022-11-01T06:46:53.667Z,94230.44
2022-11-01T06:49:21.844Z,94240.00
2022-11-01T06:51:48.300Z,94249.50
2022-11-01T06:54:17.786Z,94247.09
2022-11-01T06:56:46.915Z,94264.56
2022-11-01T06:59:13.608Z,94249.03
2022-11-01T07:01:40.112Z,94256.25
2022-11-01T07:04:06.621Z,94228.16
2022-11-01T07:06:33.061Z,94256.88
2022-11-01T07:09:00.594Z,94265.94
2022-11-01T07:11:31.309Z,94264.63
2022-11-01T07:13:59.468Z,94276.63
2022-11-01T07:16:26.425Z,94298.84
2022-11-01T07:18:53.011Z,94266.59
2022-11-01T07:21:19.665Z,94280.31
2022-11-01T07:23:46.093Z,94287.63
2022-11-01T07:26:12.471Z,94270.66
2022-11-01T07:28:39.558Z,94275.47
2022-11-01T07:31:06.327Z,94238.38
2022-11-01T07:33:32.929Z,94302.88
2022-11-01T07:36:00.730Z,94262.13
2022-11-01T07:38:27.245Z,94287.88
2022-11-01T07:40:59.497Z,94293.47
2022-11-01T07:43:25.934Z,94286.19
2022-11-01T07:45:53.832Z,94280.97
2022-11-01T07:48:20.597Z,94301.94
2022-11-01T07:50:47.354Z,94286.66
2022-11-01T07:53:16.126Z,94287.19
2022-11-01T07:55:43.402Z,94299.84
2022-11-01T07:58:10.827Z,94294.66
2022-11-01T08:00:38.216Z,94298.22
2022-11-01T08:03:07.457Z,94271.50
2022-11-01T08:05:34.402Z,94274.22
2022-11-01T08:08:02.287Z,94301.00
2022-11-01T08:10:29.257Z,94284.50
2022-11-01T08:13:04.573Z,94279.56
2022-11-01T08:15:31.120Z,94208.72
2022-11-01T08:17:59.458Z,94285.31
2022-11-01T08:20:27.418Z,94297.56
2022-11-01T08:22:54.724Z,94253.53
2022-11-01T08:25:21.874Z,94291.44
2022-11-01T08:27:48.698Z,94291.34
2022-11-01T08:30:19.726Z,94261.13
2022-11-01T08:32:46.682Z,94271.78
2022-11-01T08:35:13.376Z,94263.72
2022-11-01T08:37:53.219Z,94267.75
2022-11-01T08:40:20.952Z,94279.22
2022-11-01T08:42:50.733Z,94251.72
2022-11-01T08:45:17.526Z,94262.44
2022-11-01T08:47:44.867Z,94281.56
2022-11-01T08:50:14.716Z,94275.47
2022-11-01T08:52:41.872Z,94248.72
2022-11-01T08:55:09.964Z,94247.78
2022-11-01T08:57:36.612Z,94277.09
2022-11-01T09:00:07.052Z,94264.72
2022-11-01T09:02:34.205Z,94242.75
2022-11-01T09:05:04.964Z,94273.56
2022-11-01T09:07:31.374Z,94240.63
2022-11-01T09:09:57.748Z,94227.81
2022-11-01T09:12:24.917Z,94241.13
2022-11-01T09:14:51.498Z,94208.84
2022-11-01T09:17:18.507Z,94277.34
2022-11-01T09:19:44.989Z,94210.44
2022-11-01T09:22:11.542Z,94252.31
2022-11-01T09:24:37.931Z,94275.13
2022-11-01T09:27:05.224Z,94266.13
2022-11-01T09:31:58.181Z,94254.44
2022-11-01T09:34:24.664Z,94269.72
2022-11-01T09:36:51.212Z,94248.09
2022-11-01T09:39:21.942Z,94248.91
2022-11-01T09:41:56.370Z,94280.97
2022-11-01T09:44:37.373Z,94260.16
2022-11-01T09:47:16.491Z,94261.41
2022-11-01T09:49:47.294Z,94262.97
2022-11-01T09:52:20.230Z,94259.84
2022-11-01T09:54:47.661Z,94256.22
2022-11-01T09:57:29.349Z,94281.44
2022-11-01T10:00:13.775Z,94257.66
2022-11-01T10:06:09.895Z,94286.56
2022-11-01T10:09:06.511Z,94285.03
2022-11-01T10:11:54.647Z,94296.66
2022-11-01T10:14:55.498Z,94285.91
2022-11-01T10:17:52.397Z,94274.38
2022-11-01T10:20:34.305Z,94281.25
2022-11-01T10:23:16.677Z,94266.91
2022-11-01T10:25:52.973Z,94274.28
2022-11-01T10:28:27.892Z,94262.34
2022-11-01T10:31:01.557Z,94293.16
2022-11-01T10:33:38.749Z,94259.09
2022-11-01T10:36:12.978Z,94283.13
2022-11-01T10:39:10.718Z,94290.22
2022-11-01T10:41:44.904Z,94295.75
2022-11-01T10:44:17.923Z,94289.13
2022-11-01T10:46:48.747Z,94271.66
2022-11-01T10:49:53.009Z,94277.31
2022-11-01T10:52:28.723Z,94268.56
2022-11-01T10:54:57.187Z,94266.97
2022-11-01T10:57:37.861Z,94263.56
2022-11-01T11:00:07.619Z,94295.19
2022-11-01T11:02:39.434Z,94287.03
2022-11-01T11:05:07.185Z,94263.88
2022-11-01T11:07:33.708Z,94255.84
2022-11-01T11:12:36.766Z,94274.91
2022-11-01T11:15:16.074Z,94262.16
2022-11-01T11:17:46.336Z,94279.81
2022-11-01T11:20:16.350Z,94277.91
2022-11-01T11:22:43.274Z,94230.97
2022-11-01T11:25:18.988Z,94289.72
2022-11-01T11:27:52.779Z,94264.69
2022-11-01T11:30:34.223Z,94279.50
2022-11-01T11:33:02.779Z,94282.28
2022-11-01T11:35:32.746Z,94253.34
2022-11-01T11:38:06.292Z,94284.34
2022-11-01T11:40:39.239Z,94282.50
2022-11-01T11:43:36.086Z,94281.56
2022-11-01T11:46:07.161Z,94280.91
2022-11-01T11:48:33.567Z,94274.56
2022-11-01T11:51:03.194Z,94249.88
2022-11-01T11:53:30.323Z,94256.28
2022-11-01T11:55:59.028Z,94278.00
2022-11-01T11:58:28.465Z,94271.47
2022-11-01T12:01:19.128Z,94275.72
2022-11-01T12:03:51.457Z,94279.06
2022-11-01T12:06:21.925Z,94265.03
2022-11-01T12:08:51.384Z,94270.97
2022-11-01T12:11:18.665Z,94250.56
2022-11-01T12:14:05.110Z,94280.41
2022-11-01T12:16:40.886Z,94269.19
2022-11-01T12:19:26.288Z,94262.94
2022-11-01T12:22:10.651Z,94291.66
2022-11-01T12:24:49.287Z,94261.56
2022-11-01T12:27:22.948Z,94295.41
2022-11-01T12:29:55.369Z,94289.31
2022-11-01T12:32:27.862Z,94291.19
2022-11-01T12:34:59.448Z,94295.75
2022-11-01T12:37:55.505Z,94284.13
2022-11-01T12:40:25.517Z,94267.34
2022-11-01T12:42:58.507Z,94284.03
2022-11-01T12:45:39.340Z,94280.97
2022-11-01T12:48:11.638Z,94287.34
2022-11-01T12:50:43.979Z,94264.56
2022-11-01T12:53:20.858Z,94257.75
2022-11-01T12:55:48.519Z,94241.00
2022-11-01T12:58:18.666Z,94286.06
2022-11-01T13:00:51.191Z,94286.34
2022-11-01T13:03:39.106Z,94276.53
2022-11-01T13:06:43.238Z,94277.41
2022-11-01T13:09:43.766Z,94284.47
2022-11-01T13:12:31.139Z,94283.56
2022-11-01T13:15:25.787Z,94285.06
2022-11-01T13:18:21.766Z,94276.56
2022-11-01T13:20:56.659Z,94245.28
2022-11-01T13:23:34.662Z,94280.72
2022-11-01T13:26:10.940Z,94279.47
2022-11-01T13:28:47.399Z,94272.56
2022-11-01T13:31:33.547Z,94286.06
2022-11-01T13:34:36.629Z,94285.38
2022-11-01T13:37:49.673Z,94278.47
2022-11-01T13:40:56.935Z,94258.31
2022-11-01T13:43:29.733Z,94277.59
2022-11-01T13:46:50.248Z,94285.63
2022-11-01T13:49:52.162Z,94282.59
2022-11-01T13:52:24.291Z,94286.44
2022-11-01T13:55:19.705Z,94256.91
2022-11-01T13:57:47.323Z,94275.91
2022-11-01T14:00:37.100Z,94290.94
2022-11-01T14:03:25.458Z,94285.47
2022-11-01T14:06:06.996Z,94290.72
2022-11-01T14:08:47.008Z,94276.72
2022-11-01T14:11:42.063Z,94285.19
2022-11-01T14:14:32.460Z,94285.13
2022-11-01T14:17:20.598Z,94299.13
2022-11-01T14:19:47.582Z,94291.38
2022-11-01T14:22:24.160Z,94290.84
2022-11-01T14:24:57.893Z,94291.34
2022-11-01T14:27:37.516Z,94295.81
2022-11-01T14:30:15.345Z,94294.78
2022-11-01T14:32:55.257Z,94279.38
2022-11-01T14:35:27.685Z,94268.50
2022-11-01T14:38:00.919Z,94274.38
2022-11-01T14:40:37.690Z,94304.44
2022-11-01T14:43:15.223Z,94273.59
2022-11-01T14:45:48.611Z,94285.09
2022-11-01T14:48:27.594Z,94278.19
2022-11-01T14:51:11.343Z,94275.72
2022-11-01T14:53:38.092Z,94280.69
2022-11-01T14:56:35.795Z,94298.25
2022-11-01T14:59:19.332Z,94266.03
2022-11-01T15:01:49.112Z,94294.75
2022-11-01T15:04:29.177Z,94309.94
2022-11-01T15:06:57.461Z,94282.00
2022-11-01T15:09:27.645Z,94275.56
2022-11-01T15:12:03.046Z,94266.47
2022-11-01T15:14:37.309Z,94283.75
2022-11-01T15:17:04.211Z,94266.03
2022-11-01T15:19:37.110Z,94300.22
2022-11-01T15:22:05.989Z,94286.34
2022-11-01T15:24:34.728Z,94308.34
2022-11-01T15:27:07.351Z,94279.25
2022-11-01T15:29:34.145Z,94295.63
2022-11-01T15:32:03.581Z,94311.28
2022-11-01T15:34:34.286Z,94311.56
2022-11-01T15:37:18.485Z,94284.19
2022-11-01T15:39:44.874Z,94297.53
2022-11-01T15:42:24.704Z,94306.59
2022-11-01T15:44:51.136Z,94254.66
2022-11-01T15:47:24.062Z,94315.88
2022-11-01T15:49:56.599Z,94282.31
2022-11-01T15:52:26.344Z,94315.38
2022-11-01T15:55:02.613Z,94286.78
2022-11-01T15:57:42.406Z,94293.25
2022-11-01T16:00:22.910Z,94311.06
2022-11-01T16:03:21.296Z,94317.56
2022-11-01T16:05:56.896Z,94317.41
2022-11-01T16:08:32.372Z,94303.88
2022-11-01T16:10:59.857Z,94295.66
2022-11-01T16:13:26.636Z,94276.41
2022-11-01T16:16:10.692Z,94300.00
2022-11-01T16:18:39.704Z,94314.78
2022-11-01T16:21:29.065Z,94339.78
2022-11-01T16:24:03.960Z,94318.09
2022-11-01T16:26:33.309Z,94324.69
2022-11-01T16:28:59.691Z,94309.78
2022-11-01T16:31:28.852Z,94342.66
2022-11-01T16:33:59.321Z,94342.34
2022-11-01T16:36:26.599Z,94350.91
2022-11-01T16:38:53.825Z,94357.44
2022-11-01T16:41:39.914Z,94312.72
2022-11-01T16:44:15.974Z,94351.06
2022-11-01T16:46:42.850Z,94347.41
2022-11-01T16:49:18.074Z,94358.75
2022-11-01T16:51:44.450Z,94338.81
2022-11-01T16:54:10.932Z,94340.66
2022-11-01T16:56:47.959Z,94346.16
2022-11-01T16:59:45.538Z,94371.75
2022-11-01T17:02:18.499Z,94372.75
2022-11-01T17:04:48.363Z,94351.41
2022-11-01T17:07:17.403Z,94383.41
2022-11-01T17:09:44.872Z,94353.59
2022-11-01T17:12:11.531Z,94383.09
2022-11-01T17:14:41.975Z,94370.59
2022-11-01T17:17:15.681Z,94386.34
2022-11-01T17:19:45.972Z,94382.75
2022-11-01T17:22:20.109Z,94393.63
2022-11-01T17:24:47.109Z,94386.06
2022-11-01T17:27:14.509Z,94373.09
2022-11-01T17:29:41.534Z,94390.88
2022-11-01T17:32:10.226Z,94389.69
2022-11-01T17:34:39.127Z,94332.38
2022-11-01T17:37:06.808Z,94378.00
2022-11-01T17:39:33.398Z,94376.78
2022-11-01T17:42:09.275Z,94407.47
2022-11-01T17:44:35.890Z,94409.91
2022-11-01T17:47:05.761Z,94409.84
2022-11-01T17:49:32.263Z,94373.97
2022-11-01T17:51:58.787Z,94310.19
2022-11-01T17:56:52.491Z,94373.97
2022-11-01T17:59:20.915Z,94347.34
2022-11-01T18:01:47.800Z,94397.41
2022-11-01T18:04:14.463Z,94394.56
2022-11-01T18:06:50.478Z,94381.00
2022-11-01T18:09:20.646Z,94398.56
2022-11-01T18:11:53.599Z,94402.25
2022-11-01T18:14:34.930Z,94374.78
2022-11-01T18:17:08.892Z,94424.47
2022-11-01T18:19:43.640Z,94415.97
2022-11-01T18:22:28.889Z,94419.19
2022-11-01T18:25:20.815Z,94414.72
2022-11-01T18:27:47.294Z,94399.31
2022-11-01T18:30:20.423Z,94381.75
2022-11-01T18:32:46.763Z,94414.06
2022-11-01T18:35:34.090Z,94381.16
2022-11-01T18:38:41.412Z,94405.81
2022-11-01T18:41:13.137Z,94392.53
2022-11-01T18:43:39.911Z,94390.94
2022-11-01T18:46:24.959Z,94393.34
2022-11-01T18:48:59.938Z,94334.41
2022-11-01T18:51:31.970Z,94378.00
2022-11-01T18:54:19.682Z,94403.03
2022-11-01T18:57:10.671Z,94411.50
2022-11-01T18:59:39.149Z,94352.16
2022-11-01T19:02:11.668Z,94426.47
2022-11-01T19:04:42.729Z,94418.78
2022-11-01T19:07:12.666Z,94405.84
2022-11-01T19:09:49.899Z,94391.47
2022-11-01T19:12:26.911Z,94423.59
2022-11-01T19:15:28.461Z,94385.94
2022-11-01T19:18:02.693Z,94390.19
2022-11-01T19:20:54.919Z,94408.13
2022-11-01T19:23:39.516Z,94392.75
2022-11-01T19:26:39.073Z,94416.56
2022-11-01T19:29:29.486Z,94412.88
2022-11-01T19:32:03.787Z,94374.84
2022-11-01T19:34:36.690Z,94403.91
2022-11-01T19:37:08.346Z,94388.03
2022-11-01T19:39:38.216Z,94402.38
2022-11-01T19:42:27.638Z,94397.19
2022-11-01T19:44:58.199Z,94387.28
2022-11-01T19:47:58.337Z,94417.22
2022-11-01T19:50:34.111Z,94419.03
2022-11-01T19:53:37.944Z,94426.66
2022-11-01T19:56:05.758Z,94408.66
2022-11-01T19:58:42.530Z,94424.38
2022-11-01T20:01:09.088Z,94436.81
2022-11-01T20:03:57.218Z,94434.75
2022-11-01T20:07:01.864Z,94428.03
2022-11-01T20:09:30.829Z,94411.81
2022-11-01T20:11:57.274Z,94418.28
2022-11-01T20:14:23.710Z,94403.38
2022-11-01T20:16:50.472Z,94444.69
2022-11-01T20:19:17.836Z,94428.38
2022-11-01T20:21:45.837Z,94415.22
2022-11-01T20:24:12.909Z,94384.03
2022-11-01T20:26:39.498Z,94443.19
2022-11-01T20:29:05.935Z,94448.91
2022-11-01T20:31:32.438Z,94442.53
2022-11-01T20:34:00.161Z,94410.72
2022-11-01T20:36:27.575Z,94394.50
2022-11-01T20:38:54.072Z,94396.59
2022-11-01T20:41:22.287Z,94431.06
2022-11-01T20:43:48.673Z,94424.75
2022-11-01T20:46:15.109Z,94428.38
2022-11-01T20:48:41.585Z,94432.66
2022-11-01T20:51:08.229Z,94425.38
2022-11-01T20:53:34.618Z,94439.78
2022-11-01T20:56:02.200Z,94407.31
2022-11-01T20:58:28.605Z,94416.13
2022-11-01T21:00:55.846Z,94433.78
2022-11-01T21:03:24.384Z,94435.03
2022-11-01T21:05:51.552Z,94417.94
2022-11-01T21:08:34.268Z,94422.53
2022-11-01T21:11:09.897Z,94443.41
2022-11-01T21:13:45.629Z,94446.03
2022-11-01T21:16:31.079Z,94417.59
2022-11-01T21:19:02.088Z,94426.56
2022-11-01T21:21:35.879Z,94440.78
2022-11-01T21:24:20.658Z,94422.97
2022-11-01T21:26:52.008Z,94437.91
2022-11-01T21:29:27.650Z,94422.25
2022-11-01T21:31:54.061Z,94433.22
2022-11-01T21:34:25.968Z,94445.31
2022-11-01T21:36:52.540Z,94407.84
2022-11-01T21:39:22.818Z,94417.59
2022-11-01T21:41:55.780Z,94400.25
2022-11-01T21:44:30.268Z,94409.97
2022-11-01T21:47:00.963Z,94433.00
2022-11-01T21:49:30.351Z,94439.31
2022-11-01T21:52:02.104Z,94410.09
2022-11-01T21:54:31.316Z,94440.31
2022-11-01T21:56:57.936Z,94389.84
2022-11-01T21:59:25.101Z,94441.16
2022-11-01T22:01:51.754Z,94422.41
2022-11-01T22:04:22.229Z,94454.47
2022-11-01T22:06:51.426Z,94437.22
2022-11-01T22:09:18.267Z,94396.88
2022-11-01T22:11:44.702Z,94427.91
2022-11-01T22:14:12.690Z,94432.22
2022-11-01T22:16:39.481Z,94361.31
2022-11-01T22:19:06.552Z,94440.44
2022-11-01T22:21:33.232Z,94452.03
2022-11-01T22:23:59.942Z,94422.63
2022-11-01T22:26:36.261Z,94461.38
2022-11-01T22:29:02.651Z,94423.41
2022-11-01T22:31:29.038Z,94436.75
2022-11-01T22:33:56.586Z,94425.00
2022-11-01T22:36:30.948Z,94447.34
2022-11-01T22:39:32.941Z,94453.06
2022-11-01T22:42:00.537Z,94434.25
2022-11-01T22:44:32.113Z,94448.47
2022-11-01T22:47:01.670Z,94430.97
2022-11-01T22:49:34.515Z,94441.91
2022-11-01T22:52:16.260Z,94448.72
2022-11-01T22:54:56.523Z,94437.78
2022-11-01T22:57:27.264Z,94432.22
2022-11-01T22:59:55.426Z,94464.53
2022-11-01T23:02:27.869Z,94470.06
2022-11-01T23:05:19.017Z,94459.72
2022-11-01T23:07:51.177Z,94436.00
2022-11-01T23:10:32.906Z,94466.50
2022-11-01T23:13:43.428Z,94463.91
2022-11-01T23:16:33.655Z,94463.91
2022-11-01T23:19:02.059Z,94466.72
2022-11-01T23:21:28.654Z,94439.88
2022-11-01T23:23:55.661Z,94406.75
2022-11-01T23:26:23.645Z,94456.44
2022-11-01T23:28:53.872Z,94462.28
2022-11-01T23:31:20.928Z,94460.38
2022-11-01T23:33:49.226Z,94455.06
2022-11-01T23:36:31.282Z,94420.38
2022-11-01T23:39:11.687Z,94448.91
2022-11-01T23:41:41.160Z,94440.16
2022-11-01T23:44:50.412Z,94462.63
2022-11-01T23:47:22.427Z,94436.81
2022-11-01T23:50:00.845Z,94427.09
2022-11-01T23:52:30.205Z,94421.75
2022-11-01T23:54:57.307Z,94435.69
2022-11-01T23:57:23.864Z,94450.31
2022-11-01T23:59:50.930Z,94440.88
